createdAt,value
2018-11-28T00:00:25.486Z,24.93
2018-11-28T00:02:56.279Z,24.10
2018-11-28T00:05:29.063Z,13.43
2018-11-28T00:08:01.227Z,11.13
2018-11-28T00:10:36.469Z,12.33
2018-11-28T00:13:12.731Z,11.60
2018-11-28T00:15:43.672Z,16.50
2018-11-28T00:18:14.643Z,17.73
2018-11-28T00:20:47.186Z,13.80
2018-11-28T00:23:19.700Z,17.67
2018-11-28T00:26:51.720Z,15.93
2018-11-28T00:29:22.511Z,16.67
2018-11-28T00:31:53.848Z,14.80
2018-11-28T00:34:26.595Z,15.97
2018-11-28T00:36:59.203Z,15.80
2018-11-28T00:39:30.347Z,14.70
2018-11-28T00:42:03.021Z,16.13
2018-11-28T00:44:36.652Z,16.97
2018-11-28T00:47:10.200Z,15.30
2018-11-28T00:49:41.574Z,11.57
2018-11-28T00:52:17.579Z,14.13
2018-11-28T00:54:49.697Z,12.87
2018-11-28T00:57:19.300Z,10.97
2018-11-28T00:59:52.631Z,13.33
2018-11-28T01:02:24.226Z,13.30
2018-11-28T01:04:57.051Z,14.40
2018-11-28T01:07:27.945Z,15.33
2018-11-28T01:09:58.133Z,11.33
2018-11-28T01:12:30.868Z,11.20
2018-11-28T01:15:05.487Z,11.07
2018-11-28T01:17:36.819Z,11.63
2018-11-28T01:20:18.081Z,11.27
2018-11-28T01:22:47.566Z,13.00
2018-11-28T01:25:20.603Z,13.03
2018-11-28T01:27:53.065Z,12.47
2018-11-28T01:30:26.006Z,13.90
2018-11-28T01:32:57.993Z,14.97
2018-11-28T01:35:31.011Z,13.43
2018-11-28T01:38:02.672Z,10.17
2018-11-28T01:40:35.757Z,11.93
2018-11-28T01:43:07.596Z,15.23
2018-11-28T01:45:38.006Z,15.33
2018-11-28T01:48:09.380Z,12.40
2018-11-28T01:50:40.526Z,11.07
2018-11-28T01:53:12.301Z,12.97
2018-11-28T01:55:43.129Z,14.57
2018-11-28T01:58:13.542Z,11.90
2018-11-28T02:00:46.731Z,13.60
2018-11-28T02:03:19.117Z,14.03
2018-11-28T02:05:53.921Z,16.73
2018-11-28T02:09:28.158Z,16.97
2018-11-28T02:11:59.918Z,15.43
2018-11-28T02:14:32.086Z,25.50
2018-11-28T02:17:02.612Z,14.60
2018-11-28T02:19:34.775Z,17.03
2018-11-28T02:22:06.130Z,19.47
2018-11-28T02:24:35.431Z,18.13
2018-11-28T02:27:05.779Z,21.53
2018-11-28T02:29:36.281Z,18.30
2018-11-28T02:32:07.431Z,20.53
2018-11-28T02:34:41.228Z,16.60
2018-11-28T02:37:11.177Z,19.83
2018-11-28T02:39:43.722Z,18.13
2018-11-28T02:42:19.371Z,17.73
2018-11-28T02:44:49.899Z,19.80
2018-11-28T02:47:20.437Z,22.30
2018-11-28T02:49:53.725Z,18.03
2018-11-28T02:52:25.222Z,17.47
2018-11-28T02:54:56.317Z,17.57
2018-11-28T02:57:26.702Z,16.43
2018-11-28T03:00:00.442Z,19.20
2018-11-28T03:02:30.306Z,16.50
2018-11-28T03:05:01.690Z,17.10
2018-11-28T03:07:30.510Z,19.40
2018-11-28T03:10:00.721Z,15.87
2018-11-28T03:12:29.802Z,16.40
2018-11-28T03:15:02.502Z,20.67
2018-11-28T03:17:33.572Z,18.67
2018-11-28T03:20:04.241Z,24.17
2018-11-28T03:22:34.369Z,17.47
2018-11-28T03:25:08.066Z,21.10
2018-11-28T03:27:39.029Z,18.67
2018-11-28T03:30:15.378Z,25.53
2018-11-28T03:32:46.248Z,20.30
2018-11-28T03:35:16.810Z,20.50
2018-11-28T03:37:46.034Z,18.10
2018-11-28T03:40:15.505Z,19.40
2018-11-28T03:42:45.352Z,16.67
2018-11-28T03:45:16.706Z,17.10
2018-11-28T03:47:47.259Z,16.53
2018-11-28T03:50:17.149Z,14.90
2018-11-28T03:52:48.754Z,17.40
2018-11-28T03:55:18.509Z,15.90
2018-11-28T03:57:50.062Z,17.87
2018-11-28T04:00:23.555Z,20.87
2018-11-28T04:02:52.961Z,15.80
2018-11-28T04:05:24.306Z,16.23
2018-11-28T04:07:54.833Z,14.13
2018-11-28T04:10:27.947Z,20.10
2018-11-28T04:12:58.556Z,16.33
2018-11-28T04:15:29.388Z,18.33
2018-11-28T04:17:59.805Z,17.80
2018-11-28T04:20:30.452Z,18.03
2018-11-28T04:23:00.183Z,18.63
2018-11-28T04:25:32.586Z,15.80
2018-11-28T04:28:02.859Z,14.50
2018-11-28T04:30:32.759Z,13.53
2018-11-28T04:33:02.983Z,15.57
2018-11-28T04:35:33.637Z,16.23
2018-11-28T04:38:04.372Z,17.63
2018-11-28T04:40:33.547Z,14.63
2018-11-28T04:43:03.768Z,18.70
2018-11-28T04:45:34.090Z,15.63
2018-11-28T04:48:04.540Z,14.43
2018-11-28T04:50:34.327Z,14.00
2018-11-28T04:53:05.776Z,19.63
2018-11-28T04:55:35.896Z,14.97
2018-11-28T04:58:05.151Z,16.53
2018-11-28T05:03:31.234Z,15.07
2018-11-28T05:06:01.864Z,17.07
2018-11-28T05:08:31.935Z,18.50
2018-11-28T05:11:02.416Z,13.97
2018-11-28T05:13:33.144Z,16.40
2018-11-28T05:16:03.524Z,15.73
2018-11-28T05:18:34.057Z,14.90
2018-11-28T05:21:04.930Z,14.77
2018-11-28T05:23:34.870Z,14.07
2018-11-28T05:26:05.409Z,17.33
2018-11-28T05:28:42.326Z,22.93
2018-11-28T05:31:12.778Z,17.77
2018-11-28T05:33:45.474Z,19.43
2018-11-28T05:36:16.434Z,14.30
2018-11-28T05:38:46.615Z,18.30
2018-11-28T05:41:16.628Z,14.97
2018-11-28T05:43:46.692Z,18.50
2018-11-28T05:46:17.378Z,21.53
2018-11-28T05:48:47.910Z,15.40
2018-11-28T05:51:21.822Z,24.63
2018-11-28T05:53:58.467Z,18.67
2018-11-28T05:56:33.792Z,17.50
2018-11-28T05:59:04.701Z,18.77
2018-11-28T06:01:38.070Z,29.37
2018-11-28T06:04:09.506Z,22.67
2018-11-28T06:06:43.434Z,21.97
2018-11-28T06:09:13.531Z,19.77
2018-11-28T06:11:44.163Z,18.30
2018-11-28T06:14:14.866Z,18.40
2018-11-28T06:16:44.810Z,18.67
2018-11-28T06:19:15.952Z,29.57
2018-11-28T06:21:48.154Z,20.50
2018-11-28T06:24:18.203Z,16.67
2018-11-28T06:26:49.894Z,26.87
2018-11-28T06:29:22.463Z,24.00
2018-11-28T06:31:55.763Z,22.07
2018-11-28T06:34:26.805Z,21.80
2018-11-28T06:36:57.916Z,35.87
2018-11-28T06:39:31.470Z,21.80
2018-11-28T06:42:01.554Z,20.10
2018-11-28T06:44:30.958Z,19.07
2018-11-28T06:47:02.419Z,21.60
2018-11-28T06:49:33.040Z,25.73
2018-11-28T06:52:07.559Z,23.20
2018-11-28T06:54:39.573Z,22.80
2018-11-28T06:57:11.073Z,22.27
2018-11-28T06:59:42.247Z,24.23
2018-11-28T07:02:12.619Z,25.77
2018-11-28T07:04:47.966Z,28.20
2018-11-28T07:07:22.690Z,23.53
2018-11-28T07:09:53.667Z,25.47
2018-11-28T07:12:25.922Z,25.37
2018-11-28T07:15:01.372Z,21.80
2018-11-28T07:17:32.712Z,21.43
2018-11-28T07:20:05.214Z,27.47
2018-11-28T07:22:36.621Z,22.43
2018-11-28T07:25:09.866Z,23.40
2018-11-28T07:27:45.129Z,27.50
2018-11-28T07:30:17.267Z,31.17
2018-11-28T07:32:52.482Z,21.40
2018-11-28T07:35:23.017Z,23.17
2018-11-28T07:37:54.922Z,43.37
2018-11-28T07:40:28.599Z,36.60
2018-11-28T07:43:10.379Z,48.93
2018-11-28T07:45:46.314Z,48.00
2018-11-28T07:48:17.371Z,28.27
2018-11-28T07:50:48.355Z,37.43
2018-11-28T07:53:20.608Z,32.07
2018-11-28T07:55:51.473Z,35.40
2018-11-28T07:58:22.403Z,29.97
2018-11-28T08:00:53.872Z,29.83
2018-11-28T08:03:24.606Z,47.87
2018-11-28T08:06:06.302Z,33.33
2018-11-28T08:08:40.178Z,25.60
2018-11-28T08:11:12.576Z,34.57
2018-11-28T08:13:43.287Z,45.07
2018-11-28T08:16:17.932Z,30.23
2018-11-28T08:18:52.842Z,29.00
2018-11-28T08:21:22.856Z,25.53
2018-11-28T08:23:55.887Z,31.80
2018-11-28T08:26:28.419Z,32.20
2018-11-28T08:28:58.359Z,26.77
2018-11-28T08:31:28.576Z,38.97
2018-11-28T08:34:01.072Z,45.03
2018-11-28T08:36:32.910Z,31.83
2018-11-28T08:39:04.156Z,29.93
2018-11-28T08:41:34.472Z,23.70
2018-11-28T08:44:06.018Z,23.90
2018-11-28T08:46:38.006Z,26.20
2018-11-28T08:49:08.295Z,24.47
2018-11-28T08:51:39.735Z,24.47
2018-11-28T08:54:13.671Z,25.30
2018-11-28T08:56:46.153Z,22.13
2018-11-28T08:59:15.855Z,24.07
2018-11-28T09:01:46.806Z,20.13
2018-11-28T09:04:16.947Z,16.53
2018-11-28T09:06:47.571Z,22.90
2018-11-28T09:09:17.011Z,21.30
2018-11-28T09:11:50.673Z,17.13
2018-11-28T09:14:20.882Z,16.10
2018-11-28T09:16:50.580Z,19.77
2018-11-28T09:19:22.415Z,17.40
2018-11-28T09:21:55.299Z,16.50
2018-11-28T09:24:24.539Z,17.80
2018-11-28T09:26:56.022Z,22.37
2018-11-28T09:29:26.719Z,30.33
2018-11-28T09:31:58.717Z,19.23
2018-11-28T09:34:29.194Z,15.53
2018-11-28T09:36:58.875Z,18.40
2018-11-28T09:39:29.529Z,17.63
2018-11-28T09:42:00.568Z,20.47
2018-11-28T09:44:31.105Z,19.10
2018-11-28T09:47:01.403Z,17.53
2018-11-28T09:49:33.189Z,17.17
2018-11-28T09:52:03.877Z,19.90
2018-11-28T09:54:34.146Z,12.93
2018-11-28T09:57:04.767Z,14.00
2018-11-28T09:59:35.800Z,16.30
2018-11-28T10:02:06.340Z,11.10
2018-11-28T10:04:36.959Z,11.50
2018-11-28T10:07:07.502Z,11.57
2018-11-28T10:09:36.985Z,12.77
2018-11-28T10:12:09.063Z,13.23
2018-11-28T10:14:39.787Z,13.10
2018-11-28T10:17:10.222Z,12.70
2018-11-28T10:19:40.897Z,10.57
2018-11-28T10:22:11.279Z,15.23
2018-11-28T10:24:41.910Z,11.57
2018-11-28T10:27:14.946Z,9.80
2018-11-28T10:29:45.243Z,12.70
2018-11-28T10:32:16.569Z,19.23
2018-11-28T10:34:47.242Z,14.70
2018-11-28T10:37:17.725Z,10.60
2018-11-28T10:39:48.656Z,11.00
2018-11-28T10:42:19.601Z,12.57
2018-11-28T10:44:51.005Z,15.70
2018-11-28T10:47:21.169Z,13.13
2018-11-28T10:49:51.578Z,15.17
2018-11-28T10:52:22.226Z,13.80
2018-11-28T10:54:52.555Z,11.77
2018-11-28T10:57:23.584Z,10.20
2018-11-28T10:59:54.119Z,13.20
2018-11-28T11:02:30.312Z,13.03
2018-11-28T11:05:05.914Z,16.53
2018-11-28T11:07:42.285Z,10.63
2018-11-28T11:10:19.824Z,7.50
2018-11-28T11:12:54.815Z,8.83
2018-11-28T11:15:25.551Z,18.00
2018-11-28T11:18:02.142Z,11.03
2018-11-28T11:20:27.935Z,13.10
2018-11-28T11:22:59.595Z,7.27
2018-11-28T11:25:29.698Z,8.83
2018-11-28T11:28:01.059Z,10.00
2018-11-28T11:30:31.169Z,16.90
2018-11-28T11:33:00.978Z,11.80
2018-11-28T11:35:32.651Z,10.43
2018-11-28T11:38:04.498Z,7.70
2018-11-28T11:40:35.745Z,10.70
2018-11-28T11:43:07.378Z,9.13
2018-11-28T11:45:37.582Z,13.47
2018-11-28T11:48:07.847Z,12.43
2018-11-28T11:50:39.662Z,10.80
2018-11-28T11:53:13.156Z,10.60
2018-11-28T11:55:44.983Z,14.13
2018-11-28T11:58:17.224Z,9.43
2018-11-28T12:00:49.483Z,11.30
2018-11-28T12:03:20.790Z,10.97
2018-11-28T12:05:57.321Z,9.67
2018-11-28T12:08:30.185Z,10.63
2018-11-28T12:11:02.284Z,13.07
2018-11-28T12:13:34.430Z,13.10
2018-11-28T12:16:04.933Z,12.77
2018-11-28T12:18:42.614Z,9.27
2018-11-28T12:21:13.989Z,12.87
2018-11-28T12:23:46.729Z,8.73
2018-11-28T12:26:18.184Z,13.13
2018-11-28T12:28:49.454Z,14.97
2018-11-28T12:31:20.526Z,13.20
2018-11-28T12:33:54.837Z,12.30
2018-11-28T12:36:29.962Z,11.97
2018-11-28T12:39:04.079Z,10.83
2018-11-28T12:41:36.628Z,10.27
2018-11-28T12:44:06.977Z,10.83
2018-11-28T12:46:42.822Z,16.43
2018-11-28T12:49:14.717Z,10.50
2018-11-28T12:51:47.570Z,10.73
2018-11-28T12:54:18.784Z,8.60
2018-11-28T12:56:51.590Z,12.47
2018-11-28T12:59:23.215Z,8.33
2018-11-28T13:01:57.697Z,10.27
2018-11-28T13:04:29.862Z,10.83
2018-11-28T13:07:03.885Z,12.00
2018-11-28T13:09:33.222Z,9.30
2018-11-28T13:12:03.166Z,9.37
2018-11-28T13:14:33.967Z,11.70
2018-11-28T13:17:05.962Z,9.27
2018-11-28T13:19:37.707Z,9.90
2018-11-28T13:22:07.699Z,9.43
2018-11-28T13:24:38.872Z,11.60
2018-11-28T13:27:11.158Z,8.70
2018-11-28T13:29:41.550Z,8.40
2018-11-28T13:32:11.366Z,11.03
2018-11-28T13:34:41.498Z,7.60
2018-11-28T13:37:11.499Z,10.17
2018-11-28T13:39:42.831Z,6.00
2018-11-28T13:42:13.790Z,9.73
2018-11-28T13:44:44.642Z,8.70
2018-11-28T13:47:14.825Z,10.33
2018-11-28T13:49:45.082Z,12.53
2018-11-28T13:52:14.811Z,7.50
2018-11-28T13:55:37.844Z,8.30
2018-11-28T13:57:16.671Z,10.90
2018-11-28T13:59:45.874Z,8.60
2018-11-28T14:02:17.162Z,8.23
2018-11-28T14:04:50.042Z,9.40
2018-11-28T14:07:19.482Z,8.77
2018-11-28T14:09:48.843Z,8.00
2018-11-28T14:12:24.649Z,15.23
2018-11-28T14:14:56.563Z,11.03
2018-11-28T14:17:26.098Z,10.73
2018-11-28T14:19:57.219Z,7.33
2018-11-28T14:22:30.749Z,8.03
2018-11-28T14:25:03.900Z,12.13
2018-11-28T14:27:35.209Z,7.53
2018-11-28T14:30:05.718Z,12.73
2018-11-28T14:32:35.783Z,7.23
2018-11-28T14:35:09.225Z,12.70
2018-11-28T14:37:39.966Z,12.87
2018-11-28T14:40:17.658Z,9.20
2018-11-28T14:42:48.318Z,9.27
2018-11-28T14:45:19.055Z,9.00
2018-11-28T14:47:50.727Z,10.33
2018-11-28T14:50:32.702Z,15.60
2018-11-28T14:53:05.935Z,6.37
2018-11-28T14:55:38.107Z,8.20
2018-11-28T14:58:10.107Z,8.80
2018-11-28T15:00:40.287Z,7.87
2018-11-28T15:03:17.605Z,9.63
2018-11-28T15:06:56.432Z,8.70
2018-11-28T15:09:32.855Z,9.77
2018-11-28T15:12:03.211Z,7.57
2018-11-28T15:14:32.609Z,12.17
2018-11-28T15:17:02.831Z,11.43
2018-11-28T15:19:33.066Z,11.77
2018-11-28T15:22:03.119Z,9.77
2018-11-28T15:24:33.506Z,14.37
2018-11-28T15:27:05.058Z,11.27
2018-11-28T15:29:35.803Z,14.00
2018-11-28T15:32:06.823Z,10.13
2018-11-28T15:34:37.336Z,10.30
2018-11-28T15:37:08.923Z,15.60
2018-11-28T15:39:41.018Z,12.90
2018-11-28T15:42:10.402Z,15.03
2018-11-28T15:44:41.450Z,13.30
2018-11-28T15:47:14.494Z,13.50
2018-11-28T15:49:45.226Z,9.37
2018-11-28T15:52:17.779Z,13.60
2018-11-28T15:54:48.035Z,10.53
2018-11-28T15:57:18.977Z,11.83
2018-11-28T15:59:50.024Z,15.90
2018-11-28T16:02:20.170Z,13.70
2018-11-28T16:04:55.394Z,12.80
2018-11-28T16:07:26.725Z,13.00
2018-11-28T16:10:02.076Z,11.87
2018-11-28T16:12:32.177Z,13.23
2018-11-28T16:15:02.398Z,13.27
2018-11-28T16:17:33.235Z,18.50
2018-11-28T16:20:04.400Z,14.83
2018-11-28T16:22:34.904Z,9.97
2018-11-28T16:25:05.636Z,12.10
2018-11-28T16:27:41.707Z,16.73
2018-11-28T16:30:11.268Z,14.27
2018-11-28T16:32:42.342Z,13.90
2018-11-28T16:35:14.304Z,12.53
2018-11-28T16:37:44.944Z,13.83
2018-11-28T16:40:16.419Z,14.40
2018-11-28T16:42:46.803Z,12.03
2018-11-28T16:45:18.908Z,13.07
2018-11-28T16:47:50.344Z,12.37
2018-11-28T16:50:21.175Z,15.30
2018-11-28T16:52:51.585Z,13.70
2018-11-28T16:55:21.388Z,12.37
2018-11-28T16:57:53.578Z,13.63
2018-11-28T17:00:26.241Z,12.00
2018-11-28T17:02:56.971Z,12.93
2018-11-28T17:05:26.885Z,12.90
2018-11-28T17:07:57.682Z,16.37
2018-11-28T17:10:30.914Z,12.70
2018-11-28T17:13:00.935Z,9.97
2018-11-28T17:15:31.867Z,16.67
2018-11-28T17:18:01.687Z,13.77
2018-11-28T17:20:31.791Z,10.63
2018-11-28T17:23:02.150Z,12.40
2018-11-28T17:25:32.847Z,12.00
2018-11-28T17:28:05.637Z,12.80
2018-11-28T17:30:36.010Z,13.47
2018-11-28T17:33:12.304Z,16.13
2018-11-28T17:35:50.423Z,10.90
2018-11-28T17:38:19.930Z,11.40
2018-11-28T17:40:54.671Z,11.80
2018-11-28T17:43:26.160Z,10.90
2018-11-28T17:45:57.918Z,9.73
2018-11-28T17:48:28.314Z,12.47
2018-11-28T17:50:58.506Z,11.20
2018-11-28T17:53:32.517Z,12.30
2018-11-28T17:56:05.062Z,11.97
2018-11-28T17:58:36.305Z,13.73
2018-11-28T18:01:07.385Z,14.23
2018-11-28T18:03:37.503Z,11.10
2018-11-28T18:06:08.722Z,13.37
2018-11-28T18:08:44.070Z,10.80
2018-11-28T18:11:14.310Z,17.80
2018-11-28T18:13:45.289Z,13.07
2018-11-28T18:16:15.315Z,13.37
2018-11-28T18:18:49.676Z,10.83
2018-11-28T18:21:22.148Z,12.20
2018-11-28T18:23:52.273Z,14.80
2018-11-28T18:26:25.542Z,11.10
2018-11-28T18:28:55.065Z,10.63
2018-11-28T18:31:25.713Z,12.40
2018-11-28T18:33:55.923Z,15.30
2018-11-28T18:36:27.853Z,12.30
2018-11-28T18:38:59.250Z,9.47
2018-11-28T18:41:29.939Z,10.37
2018-11-28T18:43:59.890Z,8.60
2018-11-28T18:46:30.104Z,10.97
2018-11-28T18:49:00.017Z,12.47
2018-11-28T18:51:30.439Z,19.00
2018-11-28T18:54:00.461Z,10.33
2018-11-28T18:56:30.993Z,11.13
2018-11-28T18:59:01.025Z,10.67
2018-11-28T19:01:30.724Z,10.37
2018-11-28T19:04:00.419Z,10.63
2018-11-28T19:06:31.044Z,11.23
2018-11-28T19:09:08.555Z,13.67
2018-11-28T19:11:40.882Z,13.20
2018-11-28T19:14:12.494Z,12.03
2018-11-28T19:16:43.454Z,16.73
2018-11-28T19:19:15.560Z,9.13
2018-11-28T19:21:47.127Z,16.20
2018-11-28T19:24:22.963Z,18.43
2018-11-28T19:26:53.739Z,12.67
2018-11-28T19:29:23.031Z,14.70
2018-11-28T19:31:55.725Z,13.47
2018-11-28T19:34:27.665Z,16.23
2018-11-28T19:36:57.919Z,12.87
2018-11-28T19:39:29.361Z,15.30
2018-11-28T19:41:59.502Z,16.47
2018-11-28T19:44:28.931Z,15.47
2018-11-28T19:47:01.616Z,14.70
2018-11-28T19:49:30.891Z,15.00
2018-11-28T19:52:00.649Z,17.33
2018-11-28T19:54:30.154Z,22.67
2018-11-28T19:57:01.868Z,16.30
2018-11-28T19:59:31.286Z,21.90
2018-11-28T20:02:03.014Z,24.57
2018-11-28T20:04:35.291Z,21.23
2018-11-28T20:07:05.061Z,17.70
2018-11-28T20:09:35.083Z,24.80
2018-11-28T20:12:06.871Z,26.70
2018-11-28T20:14:36.502Z,23.50
2018-11-28T20:17:06.569Z,22.33
2018-11-28T20:19:36.162Z,26.10
2018-11-28T20:22:09.362Z,21.17
2018-11-28T20:24:38.581Z,24.93
2018-11-28T20:27:08.809Z,22.77
2018-11-28T20:29:38.439Z,28.20
2018-11-28T20:32:08.666Z,23.70
2018-11-28T20:34:40.211Z,23.17
2018-11-28T20:37:11.148Z,22.27
2018-11-28T20:39:41.887Z,24.67
2018-11-28T20:42:11.512Z,33.93
2018-11-28T20:44:42.838Z,26.60
2018-11-28T20:47:12.919Z,29.20
2018-11-28T20:49:43.586Z,29.63
2018-11-28T20:52:14.054Z,28.97
2018-11-28T20:54:46.516Z,26.13
2018-11-28T20:57:17.389Z,30.37
2018-11-28T20:59:45.235Z,28.00
2018-11-28T21:02:16.130Z,27.40
2018-11-28T21:04:46.684Z,28.50
2018-11-28T21:07:16.879Z,30.60
2018-11-28T21:09:55.832Z,28.67
2018-11-28T21:12:26.237Z,31.00
2018-11-28T21:14:56.551Z,36.83
2018-11-28T21:17:27.888Z,26.60
2018-11-28T21:19:58.325Z,28.80
2018-11-28T21:22:29.265Z,38.03
2018-11-28T21:24:59.590Z,36.50
2018-11-28T21:27:35.871Z,38.00
2018-11-28T21:30:13.086Z,38.40
2018-11-28T21:32:43.460Z,35.00
2018-11-28T21:35:18.491Z,35.70
2018-11-28T21:37:49.282Z,37.90
2018-11-28T21:40:21.058Z,42.90
2018-11-28T21:42:50.461Z,39.53
2018-11-28T21:45:21.630Z,35.57
2018-11-28T21:47:52.669Z,38.03
2018-11-28T21:50:23.096Z,43.93
2018-11-28T21:52:54.039Z,48.17
2018-11-28T21:55:25.623Z,37.37
2018-11-28T21:57:55.933Z,41.57
2018-11-28T22:00:26.450Z,45.47
2018-11-28T22:02:57.204Z,45.23
2018-11-28T22:05:27.392Z,42.37
2018-11-28T22:07:57.510Z,55.47
2018-11-28T22:10:27.317Z,45.87
2018-11-28T22:12:57.645Z,45.57
2018-11-28T22:15:28.582Z,46.97
2018-11-28T22:17:59.318Z,50.70
2018-11-28T22:20:30.049Z,48.87
2018-11-28T22:23:00.884Z,46.07
2018-11-28T22:25:31.311Z,43.30
2018-11-28T22:28:01.842Z,41.40
2018-11-28T22:30:31.753Z,46.00
2018-11-28T22:33:02.074Z,52.27
2018-11-28T22:35:32.914Z,47.40
2018-11-28T22:38:03.624Z,43.47
2018-11-28T22:40:33.962Z,43.57
2018-11-28T22:43:05.111Z,46.17
2018-11-28T22:45:36.251Z,52.63
2018-11-28T22:48:07.119Z,51.27
2018-11-28T22:50:38.660Z,47.63
2018-11-28T22:53:08.658Z,45.67
2018-11-28T22:55:39.800Z,51.07
2018-11-28T22:58:10.125Z,48.50
2018-11-28T23:00:45.364Z,53.70
2018-11-28T23:03:15.038Z,55.50
2018-11-28T23:05:46.185Z,47.70
2018-11-28T23:08:17.459Z,48.57
2018-11-28T23:10:47.713Z,45.30
2018-11-28T23:13:19.697Z,50.63
2018-11-28T23:16:50.039Z,53.37
2018-11-28T23:19:21.526Z,51.17
2018-11-28T23:21:51.329Z,49.60
2018-11-28T23:24:22.427Z,48.53
2018-11-28T23:26:52.901Z,59.83
2018-11-28T23:29:25.488Z,48.87
2018-11-28T23:31:55.594Z,48.03
2018-11-28T23:34:26.635Z,53.37
2018-11-28T23:36:59.275Z,51.27
2018-11-28T23:39:31.767Z,50.83
2018-11-28T23:42:01.494Z,53.50
2018-11-28T23:44:31.861Z,50.47
2018-11-28T23:47:01.940Z,47.53
2018-11-28T23:49:32.979Z,46.57
2018-11-28T23:52:05.630Z,49.73
2018-11-28T23:54:37.726Z,47.90
2018-11-28T23:57:09.455Z,50.80
2018-11-28T23:59:38.976Z,48.00
